Time,TemperatureF,DewpointF,PressureIn,WindDirection,WindDirectionDegrees,WindSpeedMPH,WindSpeedGustMPH,Humidity,HourlyPrecipIn,Conditions,Clouds,dailyrainin,SoftwareType,DateUTC
2013-09-29 00:00:00,70.3,63.5,29.82,SW,225,0.0,1.3,79,0.00,,---,0.00,VWS V14.01,2013-09-29 04:00:00,
2013-09-29 00:05:00,70.2,63.3,29.82,NNW,338,0.0,1.6,79,0.00,,---,0.00,VWS V14.01,2013-09-29 04:05:00,
2013-09-29 00:10:00,70.0,63.2,29.82,WNW,292,0.9,1.1,79,0.00,,---,0.00,VWS V14.01,2013-09-29 04:10:00,
2013-09-29 00:15:00,70.0,63.5,29.82,West,270,0.0,1.1,80,0.00,,---,0.00,VWS V14.01,2013-09-29 04:15:00,
2013-09-29 00:20:00,70.2,63.7,29.82,WSW,248,0.0,1.3,80,0.00,,---,0.00,VWS V14.01,2013-09-29 04:20:00,
2013-09-29 00:25:00,70.2,63.7,29.82,WSW,248,0.0,0.0,80,0.00,,---,0.00,VWS V14.01,2013-09-29 04:25:00,
2013-09-29 00:30:00,70.0,63.5,29.82,WSW,248,0.0,0.0,80,0.00,,---,0.00,VWS V14.01,2013-09-29 04:30:00,
2013-09-29 00:35:00,69.8,63.4,29.82,WSW,248,0.0,0.0,80,0.00,,---,0.00,VWS V14.01,2013-09-29 04:35:00,
2013-09-29 00:40:00,69.8,63.7,29.82,WSW,248,0.0,0.0,81,0.00,,---,0.00,VWS V14.01,2013-09-29 04:40:00,
2013-09-29 00:45:00,69.8,63.7,29.82,WSW,248,0.0,0.0,81,0.00,,---,0.00,VWS V14.01,2013-09-29 04:45:00,
2013-09-29 00:50:00,69.6,63.5,29.82,WSW,248,0.0,0.0,81,0.00,,---,0.00,VWS V14.01,2013-09-29 04:50:00,
2013-09-29 00:55:00,69.4,63.4,29.82,WSW,248,0.0,0.0,81,0.00,,---,0.00,VWS V14.01,2013-09-29 04:55:00,
2013-09-29 01:00:00,69.3,63.5,29.82,WSW,248,0.0,0.0,82,0.00,,---,0.00,VWS V14.01,2013-09-29 05:00:00,
2013-09-29 01:05:00,69.3,63.5,29.82,WSW,248,0.0,0.0,82,0.00,,---,0.00,VWS V14.01,2013-09-29 05:05:00,
2013-09-29 01:10:00,69.1,63.4,29.82,WSW,248,0.0,0.0,82,0.00,,---,0.00,VWS V14.01,2013-09-29 05:10:00,
2013-09-29 01:15:00,68.9,63.2,29.82,WSW,248,0.0,0.9,82,0.00,,---,0.00,VWS V14.01,2013-09-29 05:15:00,
2013-09-29 01:20:00,68.9,63.2,29.82,NW,315,0.9,2.0,82,0.00,,---,0.00,VWS V14.01,2013-09-29 05:20:00,
2013-09-29 01:25:00,68.9,63.5,29.82,NW,315,1.3,1.3,83,0.00,,---,0.00,VWS V14.01,2013-09-29 05:25:00,
2013-09-29 01:30:00,68.9,63.9,29.82,NW,315,0.9,1.6,84,0.00,,---,0.00,VWS V14.01,2013-09-29 05:30:00,
2013-09-29 01:35:00,68.9,63.9,29.82,NNW,338,1.3,1.6,84,0.00,,---,0.00,VWS V14.01,2013-09-29 05:35:00,
2013-09-29 01:40:00,68.9,64.2,29.82,NW,315,0.0,2.2,85,0.00,,---,0.00,VWS V14.01,2013-09-29 05:40:00,
2013-09-29 01:45:00,68.7,64.0,29.82,NW,315,0.0,1.1,85,0.00,,---,0.00,VWS V14.01,2013-09-29 05:45:00,
2013-09-29 01:50:00,68.7,64.0,29.82,NW,315,1.1,1.3,85,0.00,,---,0.00,VWS V14.01,2013-09-29 05:50:00,
2013-09-29 01:55:00,68.5,64.2,29.82,WNW,292,0.9,1.6,86,0.00,,---,0.00,VWS V14.01,2013-09-29 05:55:00,
2013-09-29 02:00:00,68.5,64.2,29.82,NW,315,0.0,1.3,86,0.00,,---,0.00,VWS V14.01,2013-09-29 06:00:00,
2013-09-29 02:05:00,68.5,64.2,29.82,NW,315,0.0,1.3,86,0.00,,---,0.00,VWS V14.01,2013-09-29 06:05:00,
2013-09-29 02:10:00,68.4,64.3,29.82,WNW,292,0.0,0.0,87,0.00,,---,0.00,VWS V14.01,2013-09-29 06:10:00,
2013-09-29 02:15:00,68.2,64.2,29.82,WNW,292,0.0,1.1,87,0.00,,---,0.00,VWS V14.01,2013-09-29 06:15:00,
2013-09-29 02:20:00,68.2,64.2,29.79,WNW,292,0.0,1.3,87,0.00,,---,0.00,VWS V14.01,2013-09-29 06:20:00,
2013-09-29 02:25:00,68.2,64.5,29.79,WNW,292,0.0,1.3,88,0.00,,---,0.00,VWS V14.01,2013-09-29 06:25:00,
2013-09-29 02:30:00,68.0,64.3,29.79,ESE,112,0.9,1.1,88,0.00,,---,0.00,VWS V14.01,2013-09-29 06:30:00,
2013-09-29 02:35:00,67.8,64.1,29.79,ESE,112,0.0,0.9,88,0.00,,---,0.00,VWS V14.01,2013-09-29 06:35:00,
2013-09-29 02:40:00,67.8,64.5,29.79,ESE,112,0.0,0.9,89,0.00,,---,0.00,VWS V14.01,2013-09-29 06:40:00,
2013-09-29 02:45:00,67.8,64.5,29.79,NW,315,1.1,1.3,89,0.00,,---,0.00,VWS V14.01,2013-09-29 06:45:00,
2013-09-29 02:50:00,67.8,64.5,29.79,NW,315,0.0,1.3,89,0.00,,---,0.00,VWS V14.01,2013-09-29 06:50:00,
2013-09-29 02:55:00,67.8,64.5,29.79,NW,315,0.0,1.3,89,0.00,,---,0.00,VWS V14.01,2013-09-29 06:55:00,
2013-09-29 03:00:00,67.8,64.8,29.79,NW,315,0.0,0.0,90,0.00,,---,0.00,VWS V14.01,2013-09-29 07:00:00,
2013-09-29 03:05:00,67.8,64.8,29.79,NW,315,1.1,1.1,90,0.00,,---,0.00,VWS V14.01,2013-09-29 07:05:00,
2013-09-29 03:10:00,67.8,64.8,29.79,WNW,292,0.0,1.6,90,0.00,,---,0.00,VWS V14.01,2013-09-29 07:10:00,
2013-09-29 03:15:00,67.8,64.8,29.79,WNW,292,0.0,0.9,90,0.00,,---,0.00,VWS V14.01,2013-09-29 07:15:00,
2013-09-29 03:20:00,67.8,65.1,29.85,WNW,292,0.0,1.3,91,0.00,,---,0.00,VWS V14.01,2013-09-29 07:20:00,
2013-09-29 03:25:00,67.6,64.9,29.85,WNW,292,1.3,1.3,91,0.00,,---,0.00,VWS V14.01,2013-09-29 07:25:00,
2013-09-29 03:30:00,67.8,65.1,29.85,NW,315,1.3,1.6,91,0.00,,---,0.00,VWS V14.01,2013-09-29 07:30:00,
2013-09-29 03:35:00,67.8,65.1,29.79,NW,315,1.1,2.0,91,0.00,,---,0.00,VWS V14.01,2013-09-29 07:35:00,
2013-09-29 03:40:00,67.6,64.9,29.79,NW,315,0.0,1.6,91,0.00,,---,0.00,VWS V14.01,2013-09-29 07:40:00,
2013-09-29 03:45:00,67.6,64.9,29.79,NW,315,0.0,0.0,91,0.00,,---,0.00,VWS V14.01,2013-09-29 07:45:00,
2013-09-29 03:50:00,67.6,64.9,29.79,NW,315,0.9,1.6,91,0.00,,---,0.00,VWS V14.01,2013-09-29 07:50:00,
2013-09-29 03:55:00,67.6,64.9,29.79,WNW,292,0.9,1.3,91,0.00,,---,0.00,VWS V14.01,2013-09-29 07:55:00,
2013-09-29 04:00:00,67.6,64.9,29.79,WNW,292,0.9,1.6,91,0.00,,---,0.00,VWS V14.01,2013-09-29 08:00:00,
2013-09-29 04:05:00,67.5,64.8,29.79,WNW,292,1.1,1.6,91,0.00,,---,0.00,VWS V14.01,2013-09-29 08:05:00,
2013-09-29 04:10:00,67.6,65.2,29.79,NW,315,0.0,1.6,92,0.00,,---,0.00,VWS V14.01,2013-09-29 08:10:00,
2013-09-29 04:15:00,67.6,65.2,29.79,NW,315,1.3,2.0,92,0.00,,---,0.00,VWS V14.01,2013-09-29 08:15:00,
2013-09-29 04:20:00,67.6,65.2,29.79,NW,315,1.6,1.6,92,0.00,,---,0.00,VWS V14.01,2013-09-29 08:20:00,
2013-09-29 04:25:00,67.6,65.2,29.79,NNW,338,1.6,2.0,92,0.00,,---,0.00,VWS V14.01,2013-09-29 08:25:00,
2013-09-29 04:30:00,67.6,65.2,29.79,NNW,338,0.0,2.0,92,0.00,,---,0.00,VWS V14.01,2013-09-29 08:30:00,
2013-09-29 04:35:00,67.6,65.2,29.79,NW,315,1.3,1.6,92,0.00,,---,0.00,VWS V14.01,2013-09-29 08:35:00,
2013-09-29 04:40:00,67.6,65.2,29.79,NW,315,0.0,1.3,92,0.00,,---,0.00,VWS V14.01,2013-09-29 08:40:00,
2013-09-29 04:45:00,67.6,65.2,29.79,NW,315,0.0,0.0,92,0.00,,---,0.00,VWS V14.01,2013-09-29 08:45:00,
2013-09-29 04:50:00,67.5,65.1,29.79,NW,315,0.0,0.0,92,0.00,,---,0.00,VWS V14.01,2013-09-29 08:50:00,
2013-09-29 04:55:00,67.5,65.1,29.79,NW,315,0.0,0.0,92,0.00,,---,0.00,VWS V14.01,2013-09-29 08:55:00,
2013-09-29 05:00:00,67.5,65.1,29.79,NW,315,0.0,0.0,92,0.00,,---,0.00,VWS V14.01,2013-09-29 09:00:00,
2013-09-29 05:05:00,67.5,65.1,29.79,NW,315,0.0,0.0,92,0.00,,---,0.00,VWS V14.01,2013-09-29 09:05:00,
2013-09-29 05:10:00,67.6,65.6,29.79,WNW,292,1.1,1.3,93,0.00,,---,0.00,VWS V14.01,2013-09-29 09:10:00,
2013-09-29 05:15:00,67.6,65.6,29.79,WNW,292,0.0,1.3,93,0.00,,---,0.00,VWS V14.01,2013-09-29 09:15:00,
2013-09-29 05:20:00,67.6,65.6,29.79,WNW,292,0.0,0.0,93,0.00,,---,0.00,VWS V14.01,2013-09-29 09:20:00,
2013-09-29 05:25:00,67.6,65.6,29.79,West,270,0.0,0.0,93,0.00,,---,0.00,VWS V14.01,2013-09-29 09:25:00,
2013-09-29 05:30:00,67.6,65.6,29.79,West,270,0.0,0.0,93,0.00,,---,0.00,VWS V14.01,2013-09-29 09:30:00,
2013-09-29 05:35:00,67.6,65.6,29.79,West,270,0.0,0.0,93,0.00,,---,0.00,VWS V14.01,2013-09-29 09:35:00,
2013-09-29 05:40:00,67.5,65.4,29.79,West,270,1.1,1.1,93,0.00,,---,0.00,VWS V14.01,2013-09-29 09:40:00,
2013-09-29 05:45:00,67.6,65.6,29.79,West,270,0.9,1.3,93,0.00,,---,0.00,VWS V14.01,2013-09-29 09:45:00,
2013-09-29 05:50:00,67.5,65.4,29.79,West,270,0.0,0.9,93,0.00,,---,0.00,VWS V14.01,2013-09-29 09:50:00,
2013-09-29 05:55:00,67.5,65.4,29.79,West,270,0.0,0.0,93,0.00,,---,0.00,VWS V14.01,2013-09-29 09:55:00,
2013-09-29 06:00:00,67.5,65.4,29.79,West,270,0.0,0.0,93,0.00,,---,0.00,VWS V14.01,2013-09-29 10:00:00,
2013-09-29 06:05:00,67.5,65.4,29.79,West,270,0.0,0.0,93,0.00,,---,0.00,VWS V14.01,2013-09-29 10:05:00,
2013-09-29 06:10:00,67.5,65.4,29.79,West,270,0.0,0.0,93,0.00,,---,0.00,VWS V14.01,2013-09-29 10:10:00,
2013-09-29 06:15:00,67.3,65.2,29.79,West,270,0.0,0.0,93,0.00,,---,0.00,VWS V14.01,2013-09-29 10:15:00,
2013-09-29 06:20:00,67.3,65.2,29.79,West,270,1.1,1.3,93,0.00,,---,0.00,VWS V14.01,2013-09-29 10:20:00,
2013-09-29 06:25:00,67.3,65.2,29.79,West,270,0.0,1.1,93,0.00,,---,0.00,VWS V14.01,2013-09-29 10:25:00,
2013-09-29 06:30:00,67.3,65.2,29.79,West,270,0.0,0.0,93,0.00,,---,0.00,VWS V14.01,2013-09-29 10:30:00,
2013-09-29 06:35:00,67.1,65.0,29.82,West,270,0.0,0.0,93,0.00,,---,0.00,VWS V14.01,2013-09-29 10:35:00,
2013-09-29 06:40:00,67.1,65.0,29.82,West,270,0.0,0.0,93,0.00,,---,0.00,VWS V14.01,2013-09-29 10:40:00,
2013-09-29 06:45:00,67.1,65.0,29.82,West,270,0.0,0.9,93,0.00,,---,0.00,VWS V14.01,2013-09-29 10:45:00,
2013-09-29 06:50:00,66.9,64.8,29.82,West,270,0.0,0.0,93,0.00,,---,0.00,VWS V14.01,2013-09-29 10:50:00,
2013-09-29 06:55:00,66.9,64.8,29.82,West,270,0.0,0.0,93,0.00,,---,0.00,VWS V14.01,2013-09-29 10:55:00,
2013-09-29 07:00:00,66.9,64.8,29.82,West,270,0.0,0.0,93,0.00,,---,0.00,VWS V14.01,2013-09-29 11:00:00,
2013-09-29 07:05:00,66.9,64.8,29.82,SW,225,1.1,1.1,93,0.00,,---,0.00,VWS V14.01,2013-09-29 11:05:00,
2013-09-29 07:10:00,66.9,65.1,29.82,SW,225,0.0,1.1,94,0.00,,---,0.00,VWS V14.01,2013-09-29 11:10:00,
2013-09-29 07:15:00,66.7,65.0,29.82,SW,225,0.0,0.0,94,0.00,,---,0.00,VWS V14.01,2013-09-29 11:15:00,
2013-09-29 07:20:00,66.7,64.7,29.82,SW,225,0.0,0.0,93,0.00,,---,0.00,VWS V14.01,2013-09-29 11:20:00,
2013-09-29 07:25:00,66.7,65.0,29.82,SW,225,0.0,0.0,94,0.00,,---,0.00,VWS V14.01,2013-09-29 11:25:00,
2013-09-29 07:30:00,67.1,65.3,29.82,SW,225,0.9,1.3,94,0.00,,---,0.00,VWS V14.01,2013-09-29 11:30:00,
2013-09-29 07:35:00,67.1,65.3,29.82,SW,225,0.0,1.3,94,0.00,,---,0.00,VWS V14.01,2013-09-29 11:35:00,
2013-09-29 07:40:00,67.1,65.3,29.82,SW,225,0.0,0.0,94,0.00,,---,0.00,VWS V14.01,2013-09-29 11:40:00,
2013-09-29 07:45:00,67.3,65.5,29.82,WSW,248,0.0,1.1,94,0.00,,---,0.00,VWS V14.01,2013-09-29 11:45:00,
2013-09-29 07:50:00,68.0,66.2,29.82,West,270,1.1,1.3,94,0.00,,---,0.00,VWS V14.01,2013-09-29 11:50:00,
2013-09-29 07:55:00,68.9,67.4,29.82,West,270,0.0,1.3,95,0.00,,---,0.00,VWS V14.01,2013-09-29 11:55:00,
2013-09-29 08:00:00,69.6,68.1,29.82,West,270,0.0,1.6,95,0.00,,---,0.00,VWS V14.01,2013-09-29 12:00:00,
2013-09-29 08:05:00,70.3,68.8,29.82,WSW,248,0.0,1.1,95,0.00,,---,0.00,VWS V14.01,2013-09-29 12:05:00,
2013-09-29 08:10:00,71.2,69.7,29.82,NW,315,1.3,1.3,95,0.00,,---,0.00,VWS V14.01,2013-09-29 12:10:00,
2013-09-29 08:15:00,71.1,69.6,29.82,NNW,338,2.0,2.0,95,0.00,,---,0.00,VWS V14.01,2013-09-29 12:15:00,
2013-09-29 08:20:00,71.4,69.6,29.82,NNW,338,0.0,2.0,94,0.00,,---,0.00,VWS V14.01,2013-09-29 12:20:00,
2013-09-29 08:25:00,72.5,70.7,29.82,NW,315,0.0,1.6,94,0.00,,---,0.00,VWS V14.01,2013-09-29 12:25:00,
2013-09-29 08:30:00,73.2,71.4,29.82,NW,315,2.0,2.5,94,0.00,,---,0.00,VWS V14.01,2013-09-29 12:30:00,
2013-09-29 08:35:00,73.8,71.6,29.82,WSW,248,1.3,2.7,93,0.00,,---,0.00,VWS V14.01,2013-09-29 12:35:00,
2013-09-29 08:40:00,74.5,71.7,29.82,NNW,338,0.0,2.2,91,0.00,,---,0.00,VWS V14.01,2013-09-29 12:40:00,
2013-09-29 08:45:00,75.2,72.1,29.82,NW,315,0.0,2.2,90,0.00,,---,0.00,VWS V14.01,2013-09-29 12:45:00,
2013-09-29 08:50:00,75.4,70.9,29.82,ENE,68,1.3,2.5,86,0.00,,---,0.00,VWS V14.01,2013-09-29 12:50:00,
2013-09-29 08:55:00,76.3,71.1,29.82,WNW,292,0.9,2.2,84,0.00,,---,0.00,VWS V14.01,2013-09-29 12:55:00,
2013-09-29 09:00:00,76.8,70.9,29.82,SSW,202,0.0,2.2,82,0.00,,---,0.00,VWS V14.01,2013-09-29 13:00:00,
2013-09-29 09:05:00,77.5,70.1,29.82,WNW,292,0.9,2.7,78,0.00,,---,0.00,VWS V14.01,2013-09-29 13:05:00,
2013-09-29 09:10:00,77.2,68.3,29.82,East,90,0.0,2.7,74,0.00,,---,0.00,VWS V14.01,2013-09-29 13:10:00,
2013-09-29 09:15:00,76.6,66.5,29.82,WSW,248,1.1,2.7,71,0.00,,---,0.00,VWS V14.01,2013-09-29 13:15:00,
2013-09-29 09:20:00,77.0,66.9,29.82,ESE,112,1.1,1.6,71,0.00,,---,0.00,VWS V14.01,2013-09-29 13:20:00,
2013-09-29 09:25:00,77.4,65.6,29.82,WNW,292,2.2,2.2,67,0.00,,---,0.00,VWS V14.01,2013-09-29 13:25:00,
2013-09-29 09:30:00,78.8,67.4,29.82,East,90,2.0,2.2,68,0.00,,---,0.00,VWS V14.01,2013-09-29 13:30:00,
2013-09-29 09:35:00,79.3,65.2,29.82,ESE,112,2.9,3.6,62,0.00,,---,0.00,VWS V14.01,2013-09-29 13:35:00,
2013-09-29 09:40:00,80.4,66.2,29.82,NNE,22,0.0,2.9,62,0.00,,---,0.00,VWS V14.01,2013-09-29 13:40:00,
2013-09-29 09:45:00,81.5,66.8,29.82,East,90,2.7,2.7,61,0.00,,---,0.00,VWS V14.01,2013-09-29 13:45:00,
2013-09-29 09:50:00,82.4,66.7,29.88,ENE,68,0.9,3.8,59,0.00,,---,0.00,VWS V14.01,2013-09-29 13:50:00,
2013-09-29 09:55:00,83.8,67.0,29.88,NW,315,1.1,2.2,57,0.00,,---,0.00,VWS V14.01,2013-09-29 13:55:00,
2013-09-29 10:00:00,84.0,64.5,29.88,East,90,0.0,3.8,52,0.00,,---,0.00,VWS V14.01,2013-09-29 14:00:00,
2013-09-29 10:05:00,84.4,63.7,29.85,ENE,68,1.3,2.5,50,0.00,,---,0.00,VWS V14.01,2013-09-29 14:05:00,
2013-09-29 10:10:00,84.9,61.2,29.85,East,90,2.7,3.6,45,0.00,,---,0.00,VWS V14.01,2013-09-29 14:10:00,
2013-09-29 10:15:00,84.4,60.1,29.85,ESE,112,2.7,3.8,44,0.00,,---,0.00,VWS V14.01,2013-09-29 14:15:00,
2013-09-29 10:20:00,85.3,62.2,29.82,East,90,1.6,3.6,46,0.00,,---,0.00,VWS V14.01,2013-09-29 14:20:00,
2013-09-29 10:25:00,86.9,63.0,29.82,East,90,2.2,2.5,45,0.00,,---,0.00,VWS V14.01,2013-09-29 14:25:00,
2013-09-29 10:30:00,86.7,61.6,29.82,WNW,292,2.5,3.1,43,0.00,,---,0.00,VWS V14.01,2013-09-29 14:30:00,
2013-09-29 10:35:00,86.7,60.9,29.82,SSW,202,0.0,3.6,42,0.00,,---,0.00,VWS V14.01,2013-09-29 14:35:00,
2013-09-29 10:40:00,87.4,60.2,29.82,North,0,3.6,4.0,40,0.00,,---,0.00,VWS V14.01,2013-09-29 14:40:00,
2013-09-29 10:45:00,88.7,60.6,29.82,NNW,338,1.1,3.6,39,0.00,,---,0.00,VWS V14.01,2013-09-29 14:45:00,
2013-09-29 10:50:00,88.2,59.4,29.82,ESE,112,0.9,3.1,38,0.00,,---,0.00,VWS V14.01,2013-09-29 14:50:00,
2013-09-29 10:55:00,86.9,59.0,29.82,WNW,292,1.6,2.7,39,0.00,,---,0.00,VWS V14.01,2013-09-29 14:55:00,
2013-09-29 11:00:00,89.2,61.1,29.82,NNW,338,1.6,3.6,39,0.00,,---,0.00,VWS V14.01,2013-09-29 15:00:00,
2013-09-29 11:05:00,90.7,60.1,29.82,East,90,2.9,2.9,36,0.00,,---,0.00,VWS V14.01,2013-09-29 15:05:00,
2013-09-29 11:10:00,90.9,60.2,29.82,ENE,68,0.9,3.4,36,0.00,,---,0.00,VWS V14.01,2013-09-29 15:10:00,
2013-09-29 11:15:00,88.2,55.5,29.82,ENE,68,3.1,5.8,33,0.00,,---,0.00,VWS V14.01,2013-09-29 15:15:00,
2013-09-29 11:20:00,87.4,56.5,29.82,NNW,338,2.2,6.0,35,0.00,,---,0.00,VWS V14.01,2013-09-29 15:20:00,
2013-09-29 11:25:00,88.9,56.9,29.82,East,90,2.0,6.0,34,0.00,,---,0.00,VWS V14.01,2013-09-29 15:25:00,
2013-09-29 11:30:00,89.1,57.1,29.82,ENE,68,3.6,5.6,34,0.00,,---,0.00,VWS V14.01,2013-09-29 15:30:00,
2013-09-29 11:35:00,88.9,56.9,29.82,East,90,2.7,8.1,34,0.00,,---,0.00,VWS V14.01,2013-09-29 15:35:00,
2013-09-29 11:40:00,90.9,57.0,29.82,East,90,1.1,6.0,32,0.00,,---,0.00,VWS V14.01,2013-09-29 15:40:00,
2013-09-29 11:45:00,91.2,58.1,29.82,ESE,112,1.1,2.7,33,0.00,,---,0.00,VWS V14.01,2013-09-29 15:45:00,
2013-09-29 11:50:00,92.5,59.2,29.82,WNW,292,1.3,2.9,33,0.00,,---,0.00,VWS V14.01,2013-09-29 15:50:00,
2013-09-29 11:55:00,93.9,56.9,29.82,East,90,2.0,4.3,29,0.00,,---,0.00,VWS V14.01,2013-09-29 15:55:00,
2013-09-29 12:00:00,93.4,55.4,29.82,East,90,2.9,4.7,28,0.00,,---,0.00,VWS V14.01,2013-09-29 16:00:00,
2013-09-29 12:05:00,93.4,55.4,29.82,East,90,3.1,3.4,28,0.00,,---,0.00,VWS V14.01,2013-09-29 16:05:00,
2013-09-29 12:10:00,93.7,54.7,29.82,ESE,112,3.4,4.9,27,0.00,,---,0.00,VWS V14.01,2013-09-29 16:10:00,
2013-09-29 12:15:00,91.6,52.9,29.82,East,90,5.4,7.4,27,0.00,,---,0.00,VWS V14.01,2013-09-29 16:15:00,
2013-09-29 12:20:00,92.1,53.4,29.82,ENE,68,2.5,6.0,27,0.00,,---,0.00,VWS V14.01,2013-09-29 16:20:00,
2013-09-29 12:25:00,91.9,53.2,29.82,ESE,112,3.1,7.2,27,0.00,,---,0.00,VWS V14.01,2013-09-29 16:25:00,
2013-09-29 12:30:00,91.8,53.1,29.82,NNE,22,2.7,6.5,27,0.00,,---,0.00,VWS V14.01,2013-09-29 16:30:00,
2013-09-29 12:35:00,93.9,54.9,29.82,East,90,3.6,6.0,27,0.00,,---,0.00,VWS V14.01,2013-09-29 16:35:00,
2013-09-29 12:40:00,91.2,52.6,29.82,SW,225,2.7,7.4,27,0.00,,---,0.00,VWS V14.01,2013-09-29 16:40:00,
2013-09-29 12:45:00,92.5,53.7,29.82,ENE,68,4.0,5.4,27,0.00,,---,0.00,VWS V14.01,2013-09-29 16:45:00,
2013-09-29 12:50:00,87.6,50.5,29.82,ENE,68,3.6,5.4,28,0.00,,---,0.00,VWS V14.01,2013-09-29 16:50:00,
2013-09-29 12:55:00,88.7,52.4,29.82,ENE,68,2.7,4.9,29,0.00,,---,0.00,VWS V14.01,2013-09-29 16:55:00,
2013-09-29 13:00:00,91.8,54.0,29.82,NNE,22,2.7,4.3,28,0.00,,---,0.00,VWS V14.01,2013-09-29 17:00:00,
2013-09-29 13:05:00,91.8,53.1,29.79,East,90,3.8,6.3,27,0.00,,---,0.00,VWS V14.01,2013-09-29 17:05:00,
2013-09-29 13:10:00,90.5,52.0,29.79,ESE,112,2.7,5.4,27,0.00,,---,0.00,VWS V14.01,2013-09-29 17:10:00,
2013-09-29 13:15:00,93.2,54.3,29.79,SSW,202,0.9,3.8,27,0.00,,---,0.00,VWS V14.01,2013-09-29 17:15:00,
2013-09-29 13:20:00,94.5,55.3,29.79,ENE,68,2.0,3.1,27,0.00,,---,0.00,VWS V14.01,2013-09-29 17:20:00,
2013-09-29 13:25:00,92.1,53.4,29.79,WNW,292,3.1,5.4,27,0.00,,---,0.00,VWS V14.01,2013-09-29 17:25:00,
2013-09-29 13:30:00,91.8,53.1,29.82,NNE,22,2.7,6.5,27,0.00,,---,0.00,VWS V14.01,2013-09-29 17:30:00,
2013-09-29 13:35:00,93.9,54.9,29.82,East,90,3.6,6.0,27,0.00,,---,0.00,VWS V14.01,2013-09-29 17:35:00,
2013-09-29 13:37:00,93.7,52.6,29.79,West,270,2.5,2.5,25,0.00,,---,0.00,VWS V14.01,2013-09-29 17:37:00,
2013-09-29 13:40:00,91.2,52.6,29.82,SW,225,2.7,7.4,27,0.00,,---,0.00,VWS V14.01,2013-09-29 17:40:00,
2013-09-29 13:42:00,94.8,54.6,29.79,East,90,2.5,3.1,26,0.00,,---,0.00,VWS V14.01,2013-09-29 17:42:00,
2013-09-29 13:45:00,92.5,53.7,29.82,ENE,68,4.0,5.4,27,0.00,,---,0.00,VWS V14.01,2013-09-29 17:45:00,
2013-09-29 13:47:00,94.3,52.0,29.79,East,90,1.6,6.0,24,0.00,,---,0.00,VWS V14.01,2013-09-29 17:47:00,
2013-09-29 13:50:00,87.6,50.5,29.82,ENE,68,3.6,5.4,28,0.00,,---,0.00,VWS V14.01,2013-09-29 17:50:00,
2013-09-29 13:52:00,92.8,51.9,29.79,ENE,68,2.5,6.7,25,0.00,,---,0.00,VWS V14.01,2013-09-29 17:52:00,
2013-09-29 13:55:00,88.7,52.4,29.82,ENE,68,2.7,4.9,29,0.00,,---,0.00,VWS V14.01,2013-09-29 17:55:00,
2013-09-29 13:57:00,93.2,51.1,29.79,East,90,3.1,3.8,24,0.00,,---,0.00,VWS V14.01,2013-09-29 17:57:00,
2013-09-29 14:00:00,91.8,54.0,29.82,NNE,22,2.7,4.3,28,0.00,,---,0.00,VWS V14.01,2013-09-29 18:00:00,
2013-09-29 14:02:00,92.8,50.8,29.76,ENE,68,2.9,6.5,24,0.00,,---,0.00,VWS V14.01,2013-09-29 18:02:00,
2013-09-29 14:05:00,91.8,53.1,29.80,East,90,3.8,6.3,27,0.00,,---,0.00,VWS V14.01,2013-09-29 18:05:00,
2013-09-29 14:07:00,93.4,48.9,29.76,ESE,112,2.5,4.9,22,0.00,,---,0.00,VWS V14.01,2013-09-29 18:07:00,
2013-09-29 14:10:00,90.5,52.0,29.80,ESE,112,2.7,5.4,27,0.00,,---,0.00,VWS V14.01,2013-09-29 18:10:00,
2013-09-29 14:12:00,91.2,48.3,29.76,East,90,2.7,7.2,23,0.00,,---,0.00,VWS V14.01,2013-09-29 18:12:00,
2013-09-29 14:15:00,93.2,54.3,29.80,SSW,202,0.9,3.8,27,0.00,,---,0.00,VWS V14.01,2013-09-29 18:15:00,
2013-09-29 14:17:00,91.2,48.3,29.76,East,90,2.9,4.9,23,0.00,,---,0.00,VWS V14.01,2013-09-29 18:17:00,
2013-09-29 14:20:00,94.5,55.3,29.80,ENE,68,2.0,3.1,27,0.00,,---,0.00,VWS V14.01,2013-09-29 18:20:00,
2013-09-29 14:22:00,93.2,52.2,29.76,NNE,22,1.1,2.2,25,0.00,,---,0.00,VWS V14.01,2013-09-29 18:22:00,
2013-09-29 14:25:00,92.1,53.4,29.80,WNW,292,3.1,5.4,27,0.00,,---,0.00,VWS V14.01,2013-09-29 18:25:00,
2013-09-29 14:27:00,91.4,48.4,29.76,ENE,68,2.9,5.6,23,0.00,,---,0.00,VWS V14.01,2013-09-29 18:27:00,
2013-09-29 14:30:00,91.4,48.4,29.76,East,90,3.4,5.6,23,0.00,,---,0.00,VWS V14.01,2013-09-29 18:30:00,
2013-09-29 14:32:00,90.7,49.0,29.79,East,90,4.9,5.8,24,0.00,,---,0.00,VWS V14.01,2013-09-29 18:32:00,
2013-09-29 14:35:00,90.1,48.5,29.80,East,90,2.7,5.8,24,0.00,,---,0.00,VWS V14.01,2013-09-29 18:35:00,
2013-09-29 14:37:00,90.1,49.6,29.79,East,90,2.5,4.9,25,0.00,,---,0.00,VWS V14.01,2013-09-29 18:37:00,
2013-09-29 14:40:00,94.3,53.1,29.80,West,270,3.1,4.9,25,0.00,,---,0.00,VWS V14.01,2013-09-29 18:40:00,
2013-09-29 14:43:00,90.7,52.1,29.79,WSW,248,0.0,2.5,27,0.00,,---,0.00,VWS V14.01,2013-09-29 18:43:00,
2013-09-29 14:45:00,94.3,53.1,29.80,East,90,3.1,4.9,25,0.00,,---,0.00,VWS V14.01,2013-09-29 18:45:00,
2013-09-29 14:48:00,90.1,50.7,29.76,East,90,1.3,3.4,26,0.00,,---,0.00,VWS V14.01,2013-09-29 18:48:00,
2013-09-29 14:50:00,94.3,53.1,29.80,East,90,3.6,6.0,25,0.00,,---,0.00,VWS V14.01,2013-09-29 18:50:00,
2013-09-29 14:53:00,89.6,51.2,29.76,ENE,68,2.0,2.5,27,0.00,,---,0.00,VWS V14.01,2013-09-29 18:53:00,
2013-09-29 14:55:00,93.7,52.6,29.80,West,270,3.8,6.7,25,0.00,,---,0.00,VWS V14.01,2013-09-29 18:55:00,
2013-09-29 14:58:00,89.6,51.2,29.76,ENE,68,3.1,3.1,27,0.00,,---,0.00,VWS V14.01,2013-09-29 18:58:00,
2013-09-29 15:00:00,92.8,50.8,29.80,ESE,112,1.6,4.7,24,0.00,,---,0.00,VWS V14.01,2013-09-29 19:00:00,
2013-09-29 15:03:00,88.2,50.0,29.76,ESE,112,3.8,4.7,27,0.00,,---,0.00,VWS V14.01,2013-09-29 19:03:00,
2013-09-29 15:05:00,93.4,50.1,29.76,East,90,2.2,6.5,23,0.00,,---,0.00,VWS V14.01,2013-09-29 19:05:00,
2013-09-29 15:08:00,87.1,49.1,29.76,ENE,68,2.7,5.8,27,0.00,,---,0.00,VWS V14.01,2013-09-29 19:08:00,
2013-09-29 15:10:00,92.7,49.5,29.76,East,90,4.9,6.9,23,0.00,,---,0.00,VWS V14.01,2013-09-29 19:10:00,
2013-09-29 15:13:00,87.3,50.2,29.76,East,90,2.7,2.7,28,0.00,,---,0.00,VWS V14.01,2013-09-29 19:13:00,
2013-09-29 15:15:00,91.6,48.6,29.76,East,90,2.9,7.2,23,0.00,,---,0.00,VWS V14.01,2013-09-29 19:15:00,
2013-09-29 15:18:00,87.6,50.5,29.74,East,90,4.3,7.8,28,0.00,,---,0.00,VWS V14.01,2013-09-29 19:18:00,
2013-09-29 15:20:00,91.8,49.9,29.76,East,90,1.3,4.9,24,0.00,,---,0.00,VWS V14.01,2013-09-29 19:20:00,
2013-09-29 15:23:00,88.0,50.8,29.74,East,90,5.6,5.6,28,0.00,,---,0.00,VWS V14.01,2013-09-29 19:23:00,
2013-09-29 15:25:00,92.1,50.2,29.76,East,90,5.6,5.6,24,0.00,,---,0.00,VWS V14.01,2013-09-29 19:25:00,
2013-09-29 15:28:00,87.8,50.7,29.74,SE,135,0.0,3.8,28,0.00,,---,0.00,VWS V14.01,2013-09-29 19:28:00,
2013-09-29 15:30:00,91.4,48.4,29.76,East,90,3.4,5.6,23,0.00,,---,0.00,VWS V14.01,2013-09-29 19:30:00,
2013-09-29 15:33:00,88.0,50.8,29.74,West,270,1.6,2.7,28,0.00,,---,0.00,VWS V14.01,2013-09-29 19:33:00,
2013-09-29 15:35:00,90.1,48.5,29.80,East,90,2.7,5.8,24,0.00,,---,0.00,VWS V14.01,2013-09-29 19:35:00,
2013-09-29 15:38:00,87.6,50.5,29.74,WNW,292,2.7,3.6,28,0.00,,---,0.00,VWS V14.01,2013-09-29 19:38:00,
2013-09-29 15:40:00,90.3,49.8,29.80,East,90,1.1,4.9,25,0.00,,---,0.00,VWS V14.01,2013-09-29 19:40:00,
2013-09-29 15:43:00,87.1,50.1,29.74,ENE,68,2.7,2.9,28,0.00,,---,0.00,VWS V14.01,2013-09-29 19:43:00,
2013-09-29 15:45:00,90.7,52.1,29.80,West,270,3.1,3.4,27,0.00,,---,0.00,VWS V14.01,2013-09-29 19:45:00,
2013-09-29 15:48:00,87.6,51.5,29.74,NNE,22,2.2,3.1,29,0.00,,---,0.00,VWS V14.01,2013-09-29 19:48:00,
2013-09-29 15:50:00,89.6,51.2,29.76,WNW,292,1.3,3.4,27,0.00,,---,0.00,VWS V14.01,2013-09-29 19:50:00,
2013-09-29 15:53:00,87.3,51.2,29.74,ENE,68,2.5,5.8,29,0.00,,---,0.00,VWS V14.01,2013-09-29 19:53:00,
2013-09-29 15:55:00,89.6,51.2,29.76,NNW,338,0.0,2.5,27,0.00,,---,0.00,VWS V14.01,2013-09-29 19:55:00,
2013-09-29 15:58:00,86.9,50.8,29.74,ESE,112,2.5,3.1,29,0.00,,---,0.00,VWS V14.01,2013-09-29 19:58:00,
2013-09-29 16:00:00,88.7,50.5,29.76,East,90,4.7,7.2,27,0.00,,---,0.00,VWS V14.01,2013-09-29 20:00:00,
2013-09-29 16:03:00,85.8,50.8,29.74,ENE,68,2.5,3.1,30,0.00,,---,0.00,VWS V14.01,2013-09-29 20:03:00,
2013-09-29 16:05:00,85.3,50.4,29.74,East,90,2.0,3.6,30,0.00,,---,0.00,VWS V14.01,2013-09-29 20:05:00,
2013-09-29 16:10:00,85.1,50.2,29.74,ENE,68,2.5,4.7,30,0.00,,---,0.00,VWS V14.01,2013-09-29 20:10:00,
2013-09-29 16:15:00,85.5,51.4,29.74,ESE,112,4.9,4.9,31,0.00,,---,0.00,VWS V14.01,2013-09-29 20:15:00,
2013-09-29 16:20:00,85.5,51.4,29.76,NE,45,3.4,5.6,31,0.00,,---,0.00,VWS V14.01,2013-09-29 20:20:00,
2013-09-29 16:25:00,85.6,51.6,29.76,NE,45,3.4,6.3,31,0.00,,---,0.00,VWS V14.01,2013-09-29 20:25:00,
2013-09-29 16:30:00,85.6,51.6,29.76,East,90,1.1,5.6,31,0.00,,---,0.00,VWS V14.01,2013-09-29 20:30:00,
2013-09-29 16:35:00,85.8,50.8,29.74,NE,45,4.3,8.7,30,0.00,,---,0.00,VWS V14.01,2013-09-29 20:35:00,
2013-09-29 16:40:00,85.6,51.6,29.74,East,90,4.9,7.4,31,0.00,,---,0.00,VWS V14.01,2013-09-29 20:40:00,
2013-09-29 16:45:00,85.5,51.4,29.74,East,90,3.8,7.8,31,0.00,,---,0.00,VWS V14.01,2013-09-29 20:45:00,
2013-09-29 16:50:00,84.9,50.9,29.74,East,90,3.6,5.6,31,0.00,,---,0.00,VWS V14.01,2013-09-29 20:50:00,
2013-09-29 16:55:00,84.2,50.3,29.74,East,90,5.4,6.5,31,0.00,,---,0.00,VWS V14.01,2013-09-29 20:55:00,
2013-09-29 17:00:00,83.8,50.9,29.74,NE,45,4.7,5.8,32,0.00,,---,0.00,VWS V14.01,2013-09-29 21:00:00,
2013-09-29 17:05:00,83.5,50.5,29.74,East,90,2.7,6.0,32,0.00,,---,0.00,VWS V14.01,2013-09-29 21:05:00,
2013-09-29 17:10:00,82.9,50.9,29.74,East,90,3.1,4.3,33,0.00,,---,0.00,VWS V14.01,2013-09-29 21:10:00,
2013-09-29 17:15:00,82.6,51.4,29.74,East,90,2.5,4.7,34,0.00,,---,0.00,VWS V14.01,2013-09-29 21:15:00,
2013-09-29 17:20:00,82.6,52.2,29.76,NNE,22,2.5,5.6,35,0.00,,---,0.00,VWS V14.01,2013-09-29 21:20:00,
2013-09-29 17:25:00,82.6,52.2,29.76,NNE,22,2.9,5.6,35,0.00,,---,0.00,VWS V14.01,2013-09-29 21:25:00,
2013-09-29 17:30:00,82.9,52.5,29.76,ENE,68,3.6,5.4,35,0.00,,---,0.00,VWS V14.01,2013-09-29 21:30:00,
2013-09-29 17:35:00,83.1,52.7,29.74,East,90,3.6,6.5,35,0.00,,---,0.00,VWS V14.01,2013-09-29 21:35:00,
2013-09-29 17:40:00,83.3,52.0,29.74,ENE,68,2.9,8.5,34,0.00,,---,0.00,VWS V14.01,2013-09-29 21:40:00,
2013-09-29 17:45:00,83.3,52.0,29.74,ENE,68,2.5,6.0,34,0.00,,---,0.00,VWS V14.01,2013-09-29 21:45:00,
2013-09-29 17:50:00,82.8,51.6,29.74,East,90,3.6,8.5,34,0.00,,---,0.00,VWS V14.01,2013-09-29 21:50:00,
2013-09-29 17:55:00,82.4,52.0,29.74,SE,135,6.0,7.4,35,0.00,,---,0.00,VWS V14.01,2013-09-29 21:55:00,
2013-09-29 18:00:00,81.7,52.9,29.74,NNE,22,6.5,9.8,37,0.00,,---,0.00,VWS V14.01,2013-09-29 22:00:00,
2013-09-29 18:05:00,81.3,53.3,29.74,East,90,2.7,6.9,38,0.00,,---,0.00,VWS V14.01,2013-09-29 22:05:00,
2013-09-29 18:10:00,82.9,50.9,29.74,East,90,3.1,4.3,33,0.00,,---,0.00,VWS V14.01,2013-09-29 22:10:00,
2013-09-29 18:13:00,80.6,54.1,29.74,East,90,2.7,5.4,40,0.00,,---,0.00,VWS V14.01,2013-09-29 22:13:00,
2013-09-29 18:15:00,82.6,51.4,29.74,East,90,2.5,4.7,34,0.00,,---,0.00,VWS V14.01,2013-09-29 22:15:00,
2013-09-29 18:18:00,80.2,54.4,29.76,ENE,68,5.4,6.3,41,0.00,,---,0.00,VWS V14.01,2013-09-29 22:18:00,
2013-09-29 18:20:00,82.6,52.2,29.76,NNE,22,2.5,5.6,35,0.00,,---,0.00,VWS V14.01,2013-09-29 22:20:00,
2013-09-29 18:23:00,80.1,54.9,29.76,East,90,5.4,5.4,42,0.00,,---,0.00,VWS V14.01,2013-09-29 22:23:00,
2013-09-29 18:25:00,82.6,52.2,29.76,NNE,22,2.9,5.6,35,0.00,,---,0.00,VWS V14.01,2013-09-29 22:25:00,
2013-09-29 18:28:00,80.1,54.9,29.76,East,90,6.3,8.1,42,0.00,,---,0.00,VWS V14.01,2013-09-29 22:28:00,
2013-09-29 18:30:00,82.9,52.5,29.76,ENE,68,3.6,5.4,35,0.00,,---,0.00,VWS V14.01,2013-09-29 22:30:00,
2013-09-29 18:33:00,79.7,55.2,29.76,NNW,338,3.6,4.9,43,0.00,,---,0.00,VWS V14.01,2013-09-29 22:33:00,
2013-09-29 18:35:00,83.1,52.7,29.74,East,90,3.6,6.5,35,0.00,,---,0.00,VWS V14.01,2013-09-29 22:35:00,
2013-09-29 18:38:00,79.5,55.7,29.76,East,90,4.3,6.3,44,0.00,,---,0.00,VWS V14.01,2013-09-29 22:38:00,
2013-09-29 18:40:00,83.3,52.0,29.74,ENE,68,2.9,8.5,34,0.00,,---,0.00,VWS V14.01,2013-09-29 22:40:00,
2013-09-29 18:43:00,79.2,55.4,29.76,ENE,68,6.3,6.3,44,0.00,,---,0.00,VWS V14.01,2013-09-29 22:43:00,
2013-09-29 18:45:00,83.3,52.0,29.74,ENE,68,2.5,6.0,34,0.00,,---,0.00,VWS V14.01,2013-09-29 22:45:00,
2013-09-29 18:48:00,79.0,55.2,29.76,East,90,3.4,5.4,44,0.00,,---,0.00,VWS V14.01,2013-09-29 22:48:00,
2013-09-29 18:50:00,82.8,51.6,29.74,East,90,3.6,8.5,34,0.00,,---,0.00,VWS V14.01,2013-09-29 22:50:00,
2013-09-29 18:53:00,78.8,54.4,29.76,ENE,68,4.3,5.8,43,0.00,,---,0.00,VWS V14.01,2013-09-29 22:53:00,
2013-09-29 18:55:00,82.4,52.0,29.74,SE,135,6.0,7.4,35,0.00,,---,0.00,VWS V14.01,2013-09-29 22:55:00,
2013-09-29 18:58:00,78.4,54.7,29.76,ENE,68,3.1,3.4,44,0.00,,---,0.00,VWS V14.01,2013-09-29 22:58:00,
2013-09-29 19:00:00,81.7,52.9,29.74,NNE,22,6.5,9.8,37,0.00,,---,0.00,VWS V14.01,2013-09-29 23:00:00,
2013-09-29 19:03:00,78.3,54.0,29.76,East,90,2.9,4.3,43,0.00,,---,0.00,VWS V14.01,2013-09-29 23:03:00,
2013-09-29 19:05:00,81.3,53.3,29.74,East,90,2.7,6.9,38,0.00,,---,0.00,VWS V14.01,2013-09-29 23:05:00,
2013-09-29 19:08:00,77.9,53.6,29.76,East,90,1.6,2.9,43,0.00,,---,0.00,VWS V14.01,2013-09-29 23:08:00,
2013-09-29 19:10:00,80.8,53.5,29.74,NNE,22,4.9,5.8,39,0.00,,---,0.00,VWS V14.01,2013-09-29 23:10:00,
2013-09-29 19:13:00,77.5,53.3,29.76,East,90,2.9,3.8,43,0.00,,---,0.00,VWS V14.01,2013-09-29 23:13:00,
2013-09-29 19:15:00,80.4,54.6,29.74,ENE,68,3.6,5.8,41,0.00,,---,0.00,VWS V14.01,2013-09-29 23:15:00,
2013-09-29 19:18:00,77.5,53.9,29.76,ENE,68,3.4,6.3,44,0.00,,---,0.00,VWS V14.01,2013-09-29 23:18:00,
2013-09-29 19:20:00,80.2,54.4,29.76,ENE,68,1.6,6.3,41,0.00,,---,0.00,VWS V14.01,2013-09-29 23:20:00,
2013-09-29 19:23:00,77.2,53.6,29.76,East,90,1.1,2.9,44,0.00,,---,0.00,VWS V14.01,2013-09-29 23:23:00,
2013-09-29 19:25:00,80.1,54.9,29.76,ESE,112,8.1,8.1,42,0.00,,---,0.00,VWS V14.01,2013-09-29 23:25:00,
2013-09-29 19:28:00,77.0,54.1,29.76,ENE,68,2.5,3.6,45,0.00,,---,0.00,VWS V14.01,2013-09-29 23:28:00,
2013-09-29 19:30:00,79.9,55.4,29.76,East,90,2.5,8.5,43,0.00,,---,0.00,VWS V14.01,2013-09-29 23:30:00,
2013-09-29 19:33:00,76.8,53.9,29.76,ENE,68,2.0,2.5,45,0.00,,---,0.00,VWS V14.01,2013-09-29 23:33:00,
2013-09-29 19:35:00,79.7,55.2,29.76,ESE,112,2.9,8.7,43,0.00,,---,0.00,VWS V14.01,2013-09-29 23:35:00,
2013-09-29 19:38:00,76.3,54.0,29.76,ENE,68,1.1,1.1,46,0.00,,---,0.00,VWS V14.01,2013-09-29 23:38:00,
2013-09-29 19:40:00,79.3,55.6,29.76,East,90,5.8,6.3,44,0.00,,---,0.00,VWS V14.01,2013-09-29 23:40:00,
2013-09-29 19:43:00,76.1,55.0,29.76,East,90,1.1,4.0,48,0.00,,---,0.00,VWS V14.01,2013-09-29 23:43:00,
2013-09-29 19:45:00,79.0,55.2,29.76,ESE,112,4.9,6.3,44,0.00,,---,0.00,VWS V14.01,2013-09-29 23:45:00,
2013-09-29 19:48:00,75.9,55.4,29.76,East,90,3.6,3.6,49,0.00,,---,0.00,VWS V14.01,2013-09-29 23:48:00,
2013-09-29 19:50:00,78.8,55.1,29.76,East,90,5.8,6.3,44,0.00,,---,0.00,VWS V14.01,2013-09-29 23:50:00,
2013-09-29 19:53:00,75.7,55.8,29.76,East,90,2.2,3.8,50,0.00,,---,0.00,VWS V14.01,2013-09-29 23:53:00,
2013-09-29 19:55:00,78.6,54.9,29.76,East,90,2.0,5.8,44,0.00,,---,0.00,VWS V14.01,2013-09-29 23:55:00,
2013-09-29 19:58:00,75.6,55.6,29.76,East,90,1.6,2.7,50,0.00,,---,0.00,VWS V14.01,2013-09-29 23:58:00,
2013-09-29 20:00:00,78.3,54.0,29.76,ENE,68,3.8,3.8,43,0.00,,---,0.00,VWS V14.01,2013-09-30 00:00:00,
2013-09-29 20:03:00,75.4,56.0,29.76,ENE,68,1.6,3.1,51,0.00,,---,0.00,VWS V14.01,2013-09-30 00:03:00,
2013-09-29 20:05:00,78.1,53.8,29.76,ENE,68,1.6,4.3,43,0.00,,---,0.00,VWS V14.01,2013-09-30 00:05:00,
2013-09-29 20:08:00,75.4,57.6,29.76,East,90,2.0,4.5,54,0.00,,---,0.00,VWS V14.01,2013-09-30 00:08:00,
2013-09-29 20:10:00,77.7,53.5,29.76,East,90,3.4,3.6,43,0.00,,---,0.00,VWS V14.01,2013-09-30 00:10:00,
2013-09-29 20:13:00,75.0,57.8,29.76,ESE,112,1.3,3.6,55,0.00,,---,0.00,VWS V14.01,2013-09-30 00:13:00,
2013-09-29 20:15:00,77.5,53.9,29.76,ENE,68,2.5,3.8,44,0.00,,---,0.00,VWS V14.01,2013-09-30 00:15:00,
2013-09-29 20:18:00,74.8,58.1,29.76,East,90,2.9,3.6,56,0.00,,---,0.00,VWS V14.01,2013-09-30 00:18:00,
2013-09-29 20:20:00,77.5,53.9,29.76,SE,135,2.0,6.3,44,0.00,,---,0.00,VWS V14.01,2013-09-30 00:20:00,
2013-09-29 20:23:00,74.8,59.1,29.76,ENE,68,2.9,5.4,58,0.00,,---,0.00,VWS V14.01,2013-09-30 00:23:00,
2013-09-29 20:25:00,77.2,53.6,29.76,East,90,1.3,3.8,44,0.00,,---,0.00,VWS V14.01,2013-09-30 00:25:00,
2013-09-29 20:28:00,74.8,59.6,29.76,East,90,3.1,5.6,59,0.00,,---,0.00,VWS V14.01,2013-09-30 00:28:00,
2013-09-29 20:30:00,77.0,54.1,29.76,ENE,68,2.0,4.3,45,0.00,,---,0.00,VWS V14.01,2013-09-30 00:30:00,
2013-09-29 20:33:00,74.7,59.4,29.76,East,90,2.5,6.0,59,0.00,,---,0.00,VWS V14.01,2013-09-30 00:33:00,
2013-09-29 20:35:00,76.6,54.3,29.76,East,90,0.9,2.7,46,0.00,,---,0.00,VWS V14.01,2013-09-30 00:35:00,
2013-09-29 20:38:00,74.5,59.2,29.76,East,90,2.2,2.9,59,0.00,,---,0.00,VWS V14.01,2013-09-30 00:38:00,
2013-09-29 20:40:00,76.1,54.4,29.76,East,90,2.5,2.9,47,0.00,,---,0.00,VWS V14.01,2013-09-30 00:40:00,
2013-09-29 20:43:00,74.3,59.5,29.76,ENE,68,2.2,5.6,60,0.00,,---,0.00,VWS V14.01,2013-09-30 00:43:00,
2013-09-29 20:45:00,76.1,55.0,29.76,East,90,2.0,4.0,48,0.00,,---,0.00,VWS V14.01,2013-09-30 00:45:00,
2013-09-29 20:48:00,74.3,60.0,29.76,ENE,68,2.5,4.9,61,0.00,,---,0.00,VWS V14.01,2013-09-30 00:48:00,
2013-09-29 20:50:00,75.9,55.4,29.76,ENE,68,0.0,3.6,49,0.00,,---,0.00,VWS V14.01,2013-09-30 00:50:00,
2013-09-29 20:53:00,74.1,59.8,29.76,ENE,68,3.8,7.6,61,0.00,,---,0.00,VWS V14.01,2013-09-30 00:53:00,
2013-09-29 20:55:00,75.7,55.8,29.76,NE,45,1.1,3.8,50,0.00,,---,0.00,VWS V14.01,2013-09-30 00:55:00,
2013-09-29 20:58:00,74.1,59.8,29.76,East,90,2.0,5.8,61,0.00,,---,0.00,VWS V14.01,2013-09-30 00:58:00,
2013-09-29 21:00:00,75.6,55.6,29.76,ESE,112,2.5,3.1,50,0.00,,---,0.00,VWS V14.01,2013-09-30 01:00:00,
2013-09-29 21:03:00,73.9,59.7,29.79,ENE,68,2.7,4.0,61,0.00,,---,0.00,VWS V14.01,2013-09-30 01:03:00,
2013-09-29 21:05:00,75.4,56.5,29.76,East,90,4.3,4.3,52,0.00,,---,0.00,VWS V14.01,2013-09-30 01:05:00,
2013-09-29 21:08:00,73.9,60.1,29.79,East,90,4.3,5.8,62,0.00,,---,0.00,VWS V14.01,2013-09-30 01:08:00,
2013-09-29 21:10:00,75.2,57.4,29.76,East,90,1.1,4.5,54,0.00,,---,0.00,VWS V14.01,2013-09-30 01:10:00,
2013-09-29 21:13:00,73.8,59.9,29.79,ESE,112,3.1,3.1,62,0.00,,---,0.00,VWS V14.01,2013-09-30 01:13:00,
2013-09-29 21:15:00,75.0,57.8,29.76,East,90,2.9,3.6,55,0.00,,---,0.00,VWS V14.01,2013-09-30 01:15:00,
2013-09-29 21:18:00,73.6,59.8,29.79,East,90,3.4,4.9,62,0.00,,---,0.00,VWS V14.01,2013-09-30 01:18:00,
2013-09-29 21:20:00,74.8,58.6,29.76,ESE,112,2.0,3.8,57,0.00,,---,0.00,VWS V14.01,2013-09-30 01:20:00,
2013-09-29 21:23:00,73.6,60.2,29.79,East,90,2.7,2.9,63,0.00,,---,0.00,VWS V14.01,2013-09-30 01:23:00,
2013-09-29 21:25:00,74.8,59.1,29.76,East,90,4.0,5.4,58,0.00,,---,0.00,VWS V14.01,2013-09-30 01:25:00,
2013-09-29 21:28:00,73.4,60.5,29.79,ENE,68,2.7,4.7,64,0.00,,---,0.00,VWS V14.01,2013-09-30 01:28:00,
2013-09-29 21:30:00,74.7,59.4,29.76,East,90,2.5,5.6,59,0.00,,---,0.00,VWS V14.01,2013-09-30 01:30:00,
2013-09-29 21:33:00,73.4,60.5,29.79,NE,45,1.6,3.6,64,0.00,,---,0.00,VWS V14.01,2013-09-30 01:33:00,
2013-09-29 21:35:00,74.5,59.2,29.76,East,90,1.6,6.0,59,0.00,,---,0.00,VWS V14.01,2013-09-30 01:35:00,
2013-09-29 21:39:00,73.2,60.8,29.79,East,90,3.1,3.8,65,0.00,,---,0.00,VWS V14.01,2013-09-30 01:39:00,
2013-09-29 21:40:00,74.5,59.7,29.76,ENE,68,5.6,5.6,60,0.00,,---,0.00,VWS V14.01,2013-09-30 01:40:00,
2013-09-29 21:44:00,72.9,60.4,29.79,East,90,1.6,2.7,65,0.00,,---,0.00,VWS V14.01,2013-09-30 01:44:00,
2013-09-29 21:45:00,74.3,59.5,29.76,East,90,2.5,5.6,60,0.00,,---,0.00,VWS V14.01,2013-09-30 01:45:00,
2013-09-29 21:49:00,72.7,60.7,29.79,ENE,68,0.9,3.1,66,0.00,,---,0.00,VWS V14.01,2013-09-30 01:49:00,
2013-09-29 21:50:00,74.1,59.8,29.76,ENE,68,3.4,4.9,61,0.00,,---,0.00,VWS V14.01,2013-09-30 01:50:00,
2013-09-29 21:54:00,72.5,60.5,29.79,East,90,0.0,2.7,66,0.00,,---,0.00,VWS V14.01,2013-09-30 01:54:00,
2013-09-29 21:55:00,74.1,59.8,29.76,East,90,5.8,7.6,61,0.00,,---,0.00,VWS V14.01,2013-09-30 01:55:00,
2013-09-29 21:59:00,72.3,60.3,29.79,East,90,1.6,2.0,66,0.00,,---,0.00,VWS V14.01,2013-09-30 01:59:00,
2013-09-29 22:00:00,74.1,59.8,29.76,East,90,2.0,5.8,61,0.00,,---,0.00,VWS V14.01,2013-09-30 02:00:00,
2013-09-29 22:04:00,72.1,60.6,29.79,East,90,1.1,3.1,67,0.00,,---,0.00,VWS V14.01,2013-09-30 02:04:00,
2013-09-29 22:05:00,73.9,59.7,29.80,East,90,2.0,4.0,61,0.00,,---,0.00,VWS V14.01,2013-09-30 02:05:00,
2013-09-29 22:10:00,72.0,60.8,29.79,ENE,68,0.9,2.7,68,0.00,,---,0.00,VWS V14.01,2013-09-30 02:10:00,
2013-09-29 22:15:00,72.0,61.2,29.79,East,90,2.0,2.9,69,0.00,,---,0.00,VWS V14.01,2013-09-30 02:15:00,
2013-09-29 22:20:00,72.0,61.7,29.82,ENE,68,1.6,3.6,70,0.00,,---,0.00,VWS V14.01,2013-09-30 02:20:00,
2013-09-29 22:25:00,72.0,61.7,29.82,ENE,68,0.0,3.4,70,0.00,,---,0.00,VWS V14.01,2013-09-30 02:25:00,
2013-09-29 22:30:00,71.8,61.5,29.82,ENE,68,0.9,2.7,70,0.00,,---,0.00,VWS V14.01,2013-09-30 02:30:00,
2013-09-29 22:35:00,71.6,61.3,29.79,ESE,112,1.3,1.3,70,0.00,,---,0.00,VWS V14.01,2013-09-30 02:35:00,
2013-09-29 22:40:00,71.6,61.7,29.79,East,90,1.3,2.9,71,0.00,,---,0.00,VWS V14.01,2013-09-30 02:40:00,
2013-09-29 22:45:00,71.8,62.3,29.79,East,90,0.9,2.9,72,0.00,,---,0.00,VWS V14.01,2013-09-30 02:45:00,
2013-09-29 22:50:00,71.8,62.7,29.82,East,90,0.9,3.6,73,0.00,,---,0.00,VWS V14.01,2013-09-30 02:50:00,
2013-09-29 22:55:00,71.4,62.3,29.82,East,90,1.1,3.1,73,0.00,,---,0.00,VWS V14.01,2013-09-30 02:55:00,
2013-09-29 23:00:00,71.4,62.3,29.82,East,90,0.0,1.3,73,0.00,,---,0.00,VWS V14.01,2013-09-30 03:00:00,
2013-09-29 23:05:00,71.1,61.6,29.79,East,90,0.0,0.0,72,0.00,,---,0.00,VWS V14.01,2013-09-30 03:05:00,
2013-09-29 23:10:00,70.7,61.6,29.79,East,90,0.0,0.0,73,0.00,,---,0.00,VWS V14.01,2013-09-30 03:10:00,
2013-09-29 23:15:00,70.9,62.2,29.79,East,90,2.0,2.9,74,0.00,,---,0.00,VWS V14.01,2013-09-30 03:15:00,
2013-09-29 23:20:00,70.9,62.6,29.79,East,90,1.3,2.5,75,0.00,,---,0.00,VWS V14.01,2013-09-30 03:20:00,
2013-09-29 23:25:00,70.9,62.6,29.79,ENE,68,0.0,2.0,75,0.00,,---,0.00,VWS V14.01,2013-09-30 03:25:00,
2013-09-29 23:30:00,70.7,62.4,29.79,ENE,68,1.6,2.5,75,0.00,,---,0.00,VWS V14.01,2013-09-30 03:30:00,
2013-09-29 23:35:00,70.5,62.6,29.79,East,90,0.0,2.0,76,0.00,,---,0.00,VWS V14.01,2013-09-30 03:35:00,
2013-09-29 23:40:00,70.3,62.4,29.79,East,90,0.0,0.9,76,0.00,,---,0.00,VWS V14.01,2013-09-30 03:40:00,
2013-09-29 23:45:00,70.2,62.2,29.79,East,90,0.0,0.0,76,0.00,,---,0.00,VWS V14.01,2013-09-30 03:45:00,
2013-09-29 23:50:00,70.0,62.1,29.79,East,90,0.0,0.0,76,0.00,,---,0.00,VWS V14.01,2013-09-30 03:50:00,
2013-09-29 23:55:00,70.0,62.1,29.79,East,90,0.0,0.0,76,0.00,,---,0.00,VWS V14.01,2013-09-30 03:55:00,